Hauptseite
METAR-TAF:

METAR-TAF

Flughäfen :

Flughafen Saint-Yan

Saint-Yan, Frankreich

Breite: 46-24-45N, Länge: 004-00-48E, Höhe: 244 m

Beobachtung

Neuester Wetterbericht von vor 25 Minuten, um 00:30 UTC
Windstille
Temperatur 12°C
Luftfeuchtigkeit 82%
Luftdruck 997 hPa
Sichtweite 10 km oder mehr
keine Wolken unter 1500 m und keine Kumulonimbus oder Gewitterwolken

METAR: LFLN 230030Z AUTO 00000KT CAVOK 12/09 Q0997

Zeit: 02:55 (00:55 UTC)

Prognose

Neuester Wetterbericht von vor 7 Stunden und 55 Minuten, um 17:00 UTC
Gültige Prognose vom 22 um 18 UTC bis 23 um 03 UTC
Wind 3 kt aus unterschiedlichen Richtungen
Sichtweite 10 km oder mehr
keine Wolken unter 1500 m und keine Kumulonimbus oder Gewitterwolken

TAF: LFLN 221700Z 2218/2303 VRB03KT CAVOK

Wetterbeobachtungen und Prognosen von mehr als 4000 Flughäfen (METAR und TAF Bericht).

Die verfügbaren Stationen werden durch gelbe und rote Markierungen auf der Karte dargestellt.

Führen Sie die Maus auf sie, um den Namen der Station zu sehen.

Darauf klicken, um die Beobachtung von Wetterbeobachtungen und Prognosen zu sehen.

Um die Karte zu ändern : klicken Sie auf den grünen Tasten mit einem schwarzen Kreuz Zum Vergrößern, auf den grünen Button mit einem Gedankenstrich zu verkleinern, oder auf die grünen Pfeile für benachbarte Karten.


METAR-TAF: